sensor_id;sensor_type;location;lat;lon;timestamp;P1;durP1;ratioP1;P2;durP2;ratioP2
45354;SDS011;31091;48.758;9.150;2023-02-01T00:01:14;7.35;;;3.20;;
45354;SDS011;31091;48.758;9.150;2023-02-01T00:04:00;12.15;;;3.78;;
45354;SDS011;31091;48.758;9.150;2023-02-01T00:06:45;5.57;;;3.38;;
45354;SDS011;31091;48.758;9.150;2023-02-01T00:09:30;6.05;;;3.50;;
45354;SDS011;31091;48.758;9.150;2023-02-01T00:12:16;6.32;;;3.20;;
45354;SDS011;31091;48.758;9.150;2023-02-01T00:15:01;4.18;;;2.55;;
45354;SDS011;31091;48.758;9.150;2023-02-01T00:17:46;5.00;;;2.83;;
45354;SDS011;31091;48.758;9.150;2023-02-01T00:20:31;5.80;;;2.72;;
45354;SDS011;31091;48.758;9.150;2023-02-01T00:23:16;6.38;;;3.78;;
45354;SDS011;31091;48.758;9.150;2023-02-01T00:26:05;5.32;;;2.75;;
45354;SDS011;31091;48.758;9.150;2023-02-01T00:31:36;5.05;;;2.72;;
45354;SDS011;31091;48.758;9.150;2023-02-01T00:34:22;4.35;;;2.67;;
45354;SDS011;31091;48.758;9.150;2023-02-01T00:37:07;6.25;;;2.78;;
45354;SDS011;31091;48.758;9.150;2023-02-01T00:39:52;5.18;;;3.05;;
45354;SDS011;31091;48.758;9.150;2023-02-01T00:42:39;3.60;;;2.38;;
45354;SDS011;31091;48.758;9.150;2023-02-01T00:45:25;5.82;;;2.40;;
45354;SDS011;31091;48.758;9.150;2023-02-01T00:48:10;4.65;;;2.55;;
45354;SDS011;31091;48.758;9.150;2023-02-01T00:50:59;3.85;;;2.15;;
45354;SDS011;31091;48.758;9.150;2023-02-01T00:53:44;5.80;;;2.78;;
45354;SDS011;31091;48.758;9.150;2023-02-01T00:56:30;5.93;;;2.67;;
45354;SDS011;31091;48.758;9.150;2023-02-01T00:59:15;5.55;;;2.67;;
45354;SDS011;31091;48.758;9.150;2023-02-01T01:02:00;5.53;;;2.13;;
45354;SDS011;31091;48.758;9.150;2023-02-01T01:04:46;3.90;;;2.33;;
45354;SDS011;31091;48.758;9.150;2023-02-01T01:07:31;4.03;;;2.17;;
45354;SDS011;31091;48.758;9.150;2023-02-01T01:10:16;4.88;;;2.38;;
45354;SDS011;31091;48.758;9.150;2023-02-01T01:13:01;3.72;;;2.10;;
45354;SDS011;31091;48.758;9.150;2023-02-01T01:15:46;6.05;;;2.17;;
45354;SDS011;31091;48.758;9.150;2023-02-01T01:18:32;2.90;;;1.85;;
45354;SDS011;31091;48.758;9.150;2023-02-01T01:21:17;3.83;;;2.33;;
45354;SDS011;31091;48.758;9.150;2023-02-01T01:24:03;3.25;;;2.03;;
45354;SDS011;31091;48.758;9.150;2023-02-01T01:26:48;2.85;;;1.83;;
45354;SDS011;31091;48.758;9.150;2023-02-01T01:29:33;5.25;;;2.50;;
45354;SDS011;31091;48.758;9.150;2023-02-01T01:32:19;3.38;;;1.60;;
45354;SDS011;31091;48.758;9.150;2023-02-01T01:35:04;4.55;;;1.73;;
45354;SDS011;31091;48.758;9.150;2023-02-01T01:37:50;3.38;;;1.85;;
45354;SDS011;31091;48.758;9.150;2023-02-01T01:40:35;4.72;;;2.03;;
45354;SDS011;31091;48.758;9.150;2023-02-01T01:43:20;4.40;;;1.70;;
45354;SDS011;31091;48.758;9.150;2023-02-01T01:46:08;3.13;;;1.70;;
45354;SDS011;31091;48.758;9.150;2023-02-01T01:48:56;2.58;;;1.70;;
45354;SDS011;31091;48.758;9.150;2023-02-01T01:51:45;3.65;;;1.77;;
45354;SDS011;31091;48.758;9.150;2023-02-01T01:54:33;1.75;;;1.40;;
45354;SDS011;31091;48.758;9.150;2023-02-01T01:57:22;3.70;;;2.08;;
45354;SDS011;31091;48.758;9.150;2023-02-01T02:00:09;1.40;;;1.30;;
45354;SDS011;31091;48.758;9.150;2023-02-01T02:02:59;3.30;;;2.13;;
45354;SDS011;31091;48.758;9.150;2023-02-01T02:05:48;3.45;;;1.80;;
45354;SDS011;31091;48.758;9.150;2023-02-01T02:08:34;1.98;;;1.50;;
45354;SDS011;31091;48.758;9.150;2023-02-01T02:11:20;3.10;;;1.55;;
45354;SDS011;31091;48.758;9.150;2023-02-01T02:14:05;3.53;;;2.30;;
45354;SDS011;31091;48.758;9.150;2023-02-01T02:16:57;5.70;;;1.95;;
45354;SDS011;31091;48.758;9.150;2023-02-01T02:26:07;2.92;;;1.92;;
45354;SDS011;31091;48.758;9.150;2023-02-01T02:40:32;2.33;;;1.73;;
45354;SDS011;31091;48.758;9.150;2023-02-01T02:46:24;3.38;;;1.90;;
45354;SDS011;31091;48.758;9.150;2023-02-01T02:49:34;2.95;;;1.85;;
45354;SDS011;31091;48.758;9.150;2023-02-01T02:52:20;3.35;;;2.03;;
45354;SDS011;31091;48.758;9.150;2023-02-01T02:55:25;3.67;;;2.20;;
45354;SDS011;31091;48.758;9.150;2023-02-01T02:58:12;3.58;;;2.08;;
45354;SDS011;31091;48.758;9.150;2023-02-01T03:01:16;3.90;;;1.92;;
45354;SDS011;31091;48.758;9.150;2023-02-01T03:04:20;4.38;;;1.67;;
45354;SDS011;31091;48.758;9.150;2023-02-01T03:07:13;3.63;;;2.00;;
45354;SDS011;31091;48.758;9.150;2023-02-01T03:09:59;3.40;;;1.98;;
45354;SDS011;31091;48.758;9.150;2023-02-01T03:12:49;6.82;;;2.28;;
45354;SDS011;31091;48.758;9.150;2023-02-01T03:27:23;3.53;;;1.80;;
45354;SDS011;31091;48.758;9.150;2023-02-01T03:32:58;3.17;;;2.05;;
45354;SDS011;31091;48.758;9.150;2023-02-01T03:41:40;3.22;;;1.80;;
45354;SDS011;31091;48.758;9.150;2023-02-01T03:44:29;2.95;;;2.10;;
45354;SDS011;31091;48.758;9.150;2023-02-01T03:47:16;4.30;;;2.08;;
45354;SDS011;31091;48.758;9.150;2023-02-01T03:50:06;3.83;;;2.38;;
45354;SDS011;31091;48.758;9.150;2023-02-01T03:52:53;4.20;;;2.40;;
45354;SDS011;31091;48.758;9.150;2023-02-01T03:55:40;4.43;;;2.70;;
45354;SDS011;31091;48.758;9.150;2023-02-01T03:58:26;3.90;;;2.50;;
45354;SDS011;31091;48.758;9.150;2023-02-01T04:01:11;3.97;;;2.10;;
45354;SDS011;31091;48.758;9.150;2023-02-01T04:03:56;3.90;;;2.30;;
45354;SDS011;31091;48.758;9.150;2023-02-01T04:06:42;3.38;;;2.10;;
45354;SDS011;31091;48.758;9.150;2023-02-01T04:09:27;3.00;;;1.73;;
45354;SDS011;31091;48.758;9.150;2023-02-01T04:12:13;3.25;;;2.22;;
45354;SDS011;31091;48.758;9.150;2023-02-01T04:14:58;2.95;;;2.05;;
45354;SDS011;31091;48.758;9.150;2023-02-01T04:17:43;3.47;;;1.92;;
45354;SDS011;31091;48.758;9.150;2023-02-01T04:20:29;4.72;;;2.25;;
45354;SDS011;31091;48.758;9.150;2023-02-01T04:23:14;4.35;;;2.40;;
45354;SDS011;31091;48.758;9.150;2023-02-01T04:26:01;2.65;;;2.03;;
45354;SDS011;31091;48.758;9.150;2023-02-01T04:28:47;3.28;;;2.17;;
45354;SDS011;31091;48.758;9.150;2023-02-01T04:31:32;3.45;;;2.15;;
45354;SDS011;31091;48.758;9.150;2023-02-01T04:34:20;4.95;;;2.10;;
45354;SDS011;31091;48.758;9.150;2023-02-01T04:37:07;5.43;;;2.83;;
45354;SDS011;31091;48.758;9.150;2023-02-01T04:39:52;3.30;;;1.95;;
45354;SDS011;31091;48.758;9.150;2023-02-01T04:42:38;4.72;;;2.97;;
45354;SDS011;31091;48.758;9.150;2023-02-01T04:45:23;3.95;;;2.10;;
45354;SDS011;31091;48.758;9.150;2023-02-01T04:48:08;2.90;;;1.85;;
45354;SDS011;31091;48.758;9.150;2023-02-01T04:50:53;4.75;;;2.05;;
45354;SDS011;31091;48.758;9.150;2023-02-01T04:53:38;2.70;;;1.85;;
45354;SDS011;31091;48.758;9.150;2023-02-01T04:56:25;3.78;;;2.28;;
45354;SDS011;31091;48.758;9.150;2023-02-01T04:59:11;3.35;;;2.03;;
45354;SDS011;31091;48.758;9.150;2023-02-01T05:01:56;2.97;;;1.80;;
45354;SDS011;31091;48.758;9.150;2023-02-01T05:04:41;3.70;;;1.90;;
45354;SDS011;31091;48.758;9.150;2023-02-01T05:07:26;4.07;;;2.45;;
45354;SDS011;31091;48.758;9.150;2023-02-01T05:10:12;2.08;;;1.48;;
45354;SDS011;31091;48.758;9.150;2023-02-01T05:12:57;5.75;;;2.17;;
45354;SDS011;31091;48.758;9.150;2023-02-01T05:16:01;3.42;;;1.83;;
45354;SDS011;31091;48.758;9.150;2023-02-01T05:18:46;2.10;;;1.55;;
45354;SDS011;31091;48.758;9.150;2023-02-01T05:21:31;3.28;;;1.83;;
45354;SDS011;31091;48.758;9.150;2023-02-01T05:24:17;2.58;;;1.90;;
45354;SDS011;31091;48.758;9.150;2023-02-01T05:27:05;3.47;;;1.83;;
45354;SDS011;31091;48.758;9.150;2023-02-01T05:29:50;5.03;;;1.77;;
45354;SDS011;31091;48.758;9.150;2023-02-01T05:32:36;2.78;;;1.75;;
45354;SDS011;31091;48.758;9.150;2023-02-01T05:35:21;3.40;;;1.85;;
45354;SDS011;31091;48.758;9.150;2023-02-01T05:38:06;3.08;;;1.77;;
45354;SDS011;31091;48.758;9.150;2023-02-01T05:40:51;2.20;;;1.83;;
45354;SDS011;31091;48.758;9.150;2023-02-01T05:43:36;3.30;;;1.70;;
45354;SDS011;31091;48.758;9.150;2023-02-01T05:46:22;2.97;;;2.00;;
45354;SDS011;31091;48.758;9.150;2023-02-01T05:49:07;6.72;;;2.17;;
45354;SDS011;31091;48.758;9.150;2023-02-01T05:51:53;4.20;;;1.85;;
45354;SDS011;31091;48.758;9.150;2023-02-01T05:54:38;3.28;;;1.90;;
45354;SDS011;31091;48.758;9.150;2023-02-01T05:57:23;4.22;;;1.63;;
45354;SDS011;31091;48.758;9.150;2023-02-01T06:00:09;2.67;;;1.70;;
45354;SDS011;31091;48.758;9.150;2023-02-01T06:02:54;3.60;;;1.90;;
45354;SDS011;31091;48.758;9.150;2023-02-01T06:05:39;3.63;;;1.70;;
45354;SDS011;31091;48.758;9.150;2023-02-01T06:08:25;2.85;;;2.17;;
45354;SDS011;31091;48.758;9.150;2023-02-01T06:11:10;4.13;;;2.08;;
45354;SDS011;31091;48.758;9.150;2023-02-01T06:13:55;3.28;;;1.65;;
45354;SDS011;31091;48.758;9.150;2023-02-01T06:16:41;4.07;;;2.25;;
45354;SDS011;31091;48.758;9.150;2023-02-01T06:19:26;2.47;;;1.77;;
45354;SDS011;31091;48.758;9.150;2023-02-01T06:22:11;4.95;;;2.38;;
45354;SDS011;31091;48.758;9.150;2023-02-01T06:24:57;3.92;;;2.17;;
45354;SDS011;31091;48.758;9.150;2023-02-01T06:27:43;4.35;;;1.80;;
45354;SDS011;31091;48.758;9.150;2023-02-01T06:30:32;3.90;;;1.85;;
45354;SDS011;31091;48.758;9.150;2023-02-01T06:33:17;3.55;;;1.63;;
45354;SDS011;31091;48.758;9.150;2023-02-01T06:36:03;3.67;;;1.92;;
45354;SDS011;31091;48.758;9.150;2023-02-01T06:38:49;4.50;;;1.60;;
45354;SDS011;31091;48.758;9.150;2023-02-01T06:41:34;3.53;;;2.08;;
45354;SDS011;31091;48.758;9.150;2023-02-01T06:44:20;3.70;;;1.85;;
45354;SDS011;31091;48.758;9.150;2023-02-01T06:47:05;4.05;;;2.15;;
45354;SDS011;31091;48.758;9.150;2023-02-01T06:49:51;4.72;;;1.58;;
45354;SDS011;31091;48.758;9.150;2023-02-01T06:52:36;4.90;;;1.67;;
45354;SDS011;31091;48.758;9.150;2023-02-01T06:55:21;5.25;;;2.10;;
45354;SDS011;31091;48.758;9.150;2023-02-01T06:58:06;4.35;;;2.40;;
45354;SDS011;31091;48.758;9.150;2023-02-01T07:00:52;4.30;;;2.05;;
45354;SDS011;31091;48.758;9.150;2023-02-01T07:03:38;5.07;;;2.28;;
45354;SDS011;31091;48.758;9.150;2023-02-01T07:06:24;3.22;;;1.80;;
45354;SDS011;31091;48.758;9.150;2023-02-01T07:09:09;3.63;;;2.10;;
45354;SDS011;31091;48.758;9.150;2023-02-01T07:11:57;4.55;;;1.92;;
45354;SDS011;31091;48.758;9.150;2023-02-01T07:14:42;3.72;;;1.80;;
45354;SDS011;31091;48.758;9.150;2023-02-01T07:17:27;3.72;;;2.13;;
45354;SDS011;31091;48.758;9.150;2023-02-01T07:20:14;7.65;;;2.42;;
45354;SDS011;31091;48.758;9.150;2023-02-01T07:22:59;8.40;;;2.03;;
45354;SDS011;31091;48.758;9.150;2023-02-01T07:25:44;3.38;;;2.00;;
45354;SDS011;31091;48.758;9.150;2023-02-01T07:28:31;4.55;;;2.00;;
45354;SDS011;31091;48.758;9.150;2023-02-01T07:31:17;5.90;;;2.22;;
45354;SDS011;31091;48.758;9.150;2023-02-01T07:34:07;7.75;;;1.98;;
45354;SDS011;31091;48.758;9.150;2023-02-01T07:36:52;4.30;;;2.20;;
45354;SDS011;31091;48.758;9.150;2023-02-01T07:39:37;3.80;;;2.42;;
45354;SDS011;31091;48.758;9.150;2023-02-01T07:42:22;5.07;;;2.17;;
45354;SDS011;31091;48.758;9.150;2023-02-01T07:45:08;3.70;;;2.28;;
45354;SDS011;31091;48.758;9.150;2023-02-01T07:47:53;3.88;;;1.80;;
45354;SDS011;31091;48.758;9.150;2023-02-01T07:50:38;3.35;;;1.88;;
45354;SDS011;31091;48.758;9.150;2023-02-01T07:53:23;3.53;;;1.90;;
45354;SDS011;31091;48.758;9.150;2023-02-01T07:56:10;3.45;;;2.00;;
45354;SDS011;31091;48.758;9.150;2023-02-01T07:58:56;4.78;;;1.70;;
45354;SDS011;31091;48.758;9.150;2023-02-01T08:01:41;7.03;;;2.00;;
45354;SDS011;31091;48.758;9.150;2023-02-01T08:04:26;6.35;;;2.20;;
45354;SDS011;31091;48.758;9.150;2023-02-01T08:07:14;2.58;;;1.85;;
45354;SDS011;31091;48.758;9.150;2023-02-01T08:09:59;5.57;;;1.85;;
45354;SDS011;31091;48.758;9.150;2023-02-01T08:12:45;5.32;;;2.38;;
45354;SDS011;31091;48.758;9.150;2023-02-01T08:15:33;4.85;;;2.88;;
45354;SDS011;31091;48.758;9.150;2023-02-01T08:18:19;4.38;;;1.88;;
45354;SDS011;31091;48.758;9.150;2023-02-01T08:21:06;5.85;;;2.50;;
45354;SDS011;31091;48.758;9.150;2023-02-01T08:23:52;5.32;;;1.90;;
45354;SDS011;31091;48.758;9.150;2023-02-01T08:26:37;5.43;;;2.53;;
45354;SDS011;31091;48.758;9.150;2023-02-01T08:29:22;5.13;;;2.30;;
45354;SDS011;31091;48.758;9.150;2023-02-01T08:32:07;3.85;;;2.33;;
45354;SDS011;31091;48.758;9.150;2023-02-01T08:34:53;3.45;;;1.90;;
45354;SDS011;31091;48.758;9.150;2023-02-01T08:37:38;4.63;;;2.38;;
45354;SDS011;31091;48.758;9.150;2023-02-01T08:40:23;4.20;;;1.98;;
45354;SDS011;31091;48.758;9.150;2023-02-01T08:43:08;7.97;;;2.63;;
45354;SDS011;31091;48.758;9.150;2023-02-01T08:45:54;4.93;;;2.72;;
45354;SDS011;31091;48.758;9.150;2023-02-01T08:48:40;6.28;;;2.42;;
45354;SDS011;31091;48.758;9.150;2023-02-01T08:51:25;5.78;;;2.83;;
45354;SDS011;31091;48.758;9.150;2023-02-01T08:54:10;7.47;;;2.53;;
45354;SDS011;31091;48.758;9.150;2023-02-01T08:56:55;8.23;;;2.38;;
45354;SDS011;31091;48.758;9.150;2023-02-01T08:59:41;8.23;;;2.70;;
45354;SDS011;31091;48.758;9.150;2023-02-01T09:02:28;5.20;;;2.10;;
45354;SDS011;31091;48.758;9.150;2023-02-01T09:05:13;11.68;;;2.53;;
45354;SDS011;31091;48.758;9.150;2023-02-01T09:08:01;6.60;;;2.50;;
45354;SDS011;31091;48.758;9.150;2023-02-01T09:10:46;5.28;;;2.20;;
45354;SDS011;31091;48.758;9.150;2023-02-01T09:13:31;6.32;;;2.35;;
45354;SDS011;31091;48.758;9.150;2023-02-01T09:16:18;10.93;;;2.97;;
45354;SDS011;31091;48.758;9.150;2023-02-01T09:19:03;4.97;;;2.40;;
45354;SDS011;31091;48.758;9.150;2023-02-01T09:21:49;4.93;;;2.25;;
45354;SDS011;31091;48.758;9.150;2023-02-01T09:24:34;6.60;;;2.65;;
45354;SDS011;31091;48.758;9.150;2023-02-01T09:27:19;8.90;;;2.67;;
45354;SDS011;31091;48.758;9.150;2023-02-01T09:30:05;10.65;;;2.72;;
45354;SDS011;31091;48.758;9.150;2023-02-01T09:32:50;9.65;;;2.53;;
45354;SDS011;31091;48.758;9.150;2023-02-01T09:35:36;8.75;;;2.42;;
45354;SDS011;31091;48.758;9.150;2023-02-01T09:38:21;7.80;;;2.28;;
45354;SDS011;31091;48.758;9.150;2023-02-01T09:46:55;10.13;;;3.72;;
45354;SDS011;31091;48.758;9.150;2023-02-01T09:52:52;9.45;;;2.70;;
45354;SDS011;31091;48.758;9.150;2023-02-01T09:55:48;8.32;;;2.88;;
45354;SDS011;31091;48.758;9.150;2023-02-01T09:58:38;6.88;;;2.38;;
45354;SDS011;31091;48.758;9.150;2023-02-01T10:01:25;14.43;;;3.47;;
45354;SDS011;31091;48.758;9.150;2023-02-01T10:04:12;13.27;;;2.53;;
45354;SDS011;31091;48.758;9.150;2023-02-01T10:12:57;8.55;;;2.78;;
45354;SDS011;31091;48.758;9.150;2023-02-01T10:18:51;13.23;;;2.55;;
45354;SDS011;31091;48.758;9.150;2023-02-01T10:21:43;11.77;;;3.28;;
45354;SDS011;31091;48.758;9.150;2023-02-01T10:27:19;13.20;;;3.08;;
45354;SDS011;31091;48.758;9.150;2023-02-01T10:30:14;9.18;;;2.40;;
45354;SDS011;31091;48.758;9.150;2023-02-01T10:33:13;11.57;;;2.45;;
45354;SDS011;31091;48.758;9.150;2023-02-01T10:38:50;11.02;;;3.10;;
45354;SDS011;31091;48.758;9.150;2023-02-01T10:41:36;15.18;;;3.88;;
45354;SDS011;31091;48.758;9.150;2023-02-01T10:44:28;10.57;;;3.08;;
45354;SDS011;31091;48.758;9.150;2023-02-01T10:47:15;10.95;;;2.33;;
45354;SDS011;31091;48.758;9.150;2023-02-01T10:52:53;15.48;;;3.08;;
45354;SDS011;31091;48.758;9.150;2023-02-01T10:55:40;9.93;;;3.65;;
45354;SDS011;31091;48.758;9.150;2023-02-01T10:58:30;11.57;;;3.60;;
45354;SDS011;31091;48.758;9.150;2023-02-01T11:01:35;8.18;;;2.70;;
45354;SDS011;31091;48.758;9.150;2023-02-01T11:04:22;8.82;;;3.58;;
45354;SDS011;31091;48.758;9.150;2023-02-01T11:10:04;13.60;;;2.58;;
45354;SDS011;31091;48.758;9.150;2023-02-01T11:12:53;10.68;;;3.05;;
45354;SDS011;31091;48.758;9.150;2023-02-01T11:15:38;12.05;;;2.60;;
45354;SDS011;31091;48.758;9.150;2023-02-01T11:18:28;8.43;;;2.75;;
45354;SDS011;31091;48.758;9.150;2023-02-01T11:21:13;8.40;;;2.30;;
45354;SDS011;31091;48.758;9.150;2023-02-01T11:24:03;9.52;;;2.05;;
45354;SDS011;31091;48.758;9.150;2023-02-01T11:26:48;9.80;;;2.55;;
45354;SDS011;31091;48.758;9.150;2023-02-01T11:29:44;8.57;;;2.42;;
45354;SDS011;31091;48.758;9.150;2023-02-01T11:32:30;17.98;;;3.30;;
45354;SDS011;31091;48.758;9.150;2023-02-01T11:35:17;8.40;;;2.50;;
45354;SDS011;31091;48.758;9.150;2023-02-01T11:38:11;16.92;;;2.90;;
45354;SDS011;31091;48.758;9.150;2023-02-01T11:41:29;10.07;;;3.85;;
45354;SDS011;31091;48.758;9.150;2023-02-01T11:44:21;12.23;;;3.60;;
45354;SDS011;31091;48.758;9.150;2023-02-01T11:50:15;10.20;;;2.58;;
45354;SDS011;31091;48.758;9.150;2023-02-01T11:53:22;12.63;;;2.65;;
45354;SDS011;31091;48.758;9.150;2023-02-01T11:56:27;8.82;;;2.63;;
45354;SDS011;31091;48.758;9.150;2023-02-01T12:02:26;12.80;;;3.88;;
45354;SDS011;31091;48.758;9.150;2023-02-01T12:14:36;8.52;;;2.55;;
45354;SDS011;31091;48.758;9.150;2023-02-01T12:17:22;15.00;;;2.72;;
45354;SDS011;31091;48.758;9.150;2023-02-01T12:23:20;14.25;;;3.33;;
45354;SDS011;31091;48.758;9.150;2023-02-01T12:32:00;13.07;;;3.20;;
45354;SDS011;31091;48.758;9.150;2023-02-01T12:38:16;11.48;;;2.75;;
45354;SDS011;31091;48.758;9.150;2023-02-01T12:44:28;10.63;;;3.15;;
45354;SDS011;31091;48.758;9.150;2023-02-01T12:47:31;8.02;;;2.70;;
45354;SDS011;31091;48.758;9.150;2023-02-01T12:50:26;10.15;;;2.80;;
45354;SDS011;31091;48.758;9.150;2023-02-01T12:56:01;8.32;;;2.25;;
45354;SDS011;31091;48.758;9.150;2023-02-01T12:58:49;13.02;;;3.17;;
45354;SDS011;31091;48.758;9.150;2023-02-01T13:04:29;10.30;;;2.55;;
45354;SDS011;31091;48.758;9.150;2023-02-01T13:07:18;6.70;;;2.42;;
45354;SDS011;31091;48.758;9.150;2023-02-01T13:13:14;11.85;;;2.90;;
45354;SDS011;31091;48.758;9.150;2023-02-01T13:16:15;9.23;;;2.63;;
45354;SDS011;31091;48.758;9.150;2023-02-01T13:22:07;8.88;;;2.83;;
45354;SDS011;31091;48.758;9.150;2023-02-01T13:24:58;11.98;;;3.03;;
45354;SDS011;31091;48.758;9.150;2023-02-01T13:27:44;11.18;;;2.22;;
45354;SDS011;31091;48.758;9.150;2023-02-01T13:30:35;10.43;;;2.60;;
45354;SDS011;31091;48.758;9.150;2023-02-01T13:33:28;16.17;;;3.00;;
45354;SDS011;31091;48.758;9.150;2023-02-01T13:45:03;9.98;;;2.65;;
45354;SDS011;31091;48.758;9.150;2023-02-01T13:47:50;5.70;;;1.85;;
45354;SDS011;31091;48.758;9.150;2023-02-01T13:50:38;11.95;;;2.58;;
45354;SDS011;31091;48.758;9.150;2023-02-01T13:53:29;8.48;;;2.10;;
45354;SDS011;31091;48.758;9.150;2023-02-01T13:56:19;12.07;;;3.20;;
45354;SDS011;31091;48.758;9.150;2023-02-01T13:59:35;10.52;;;3.05;;
45354;SDS011;31091;48.758;9.150;2023-02-01T14:08:10;10.00;;;2.75;;
45354;SDS011;31091;48.758;9.150;2023-02-01T14:10:59;12.65;;;3.15;;
45354;SDS011;31091;48.758;9.150;2023-02-01T14:13:44;10.50;;;3.53;;
45354;SDS011;31091;48.758;9.150;2023-02-01T14:16:30;8.18;;;2.60;;
45354;SDS011;31091;48.758;9.150;2023-02-01T14:19:22;8.88;;;2.58;;
45354;SDS011;31091;48.758;9.150;2023-02-01T14:24:59;11.57;;;3.15;;
45354;SDS011;31091;48.758;9.150;2023-02-01T14:27:44;12.98;;;2.25;;
45354;SDS011;31091;48.758;9.150;2023-02-01T14:30:30;12.77;;;2.40;;
45354;SDS011;31091;48.758;9.150;2023-02-01T14:33:18;11.00;;;4.50;;
45354;SDS011;31091;48.758;9.150;2023-02-01T14:36:09;10.27;;;2.70;;
45354;SDS011;31091;48.758;9.150;2023-02-01T14:38:55;17.15;;;4.35;;
45354;SDS011;31091;48.758;9.150;2023-02-01T14:41:41;8.35;;;2.42;;
45354;SDS011;31091;48.758;9.150;2023-02-01T14:44:29;13.75;;;3.33;;
45354;SDS011;31091;48.758;9.150;2023-02-01T15:01:37;10.10;;;3.53;;
45354;SDS011;31091;48.758;9.150;2023-02-01T15:04:25;12.82;;;2.58;;
45354;SDS011;31091;48.758;9.150;2023-02-01T15:07:11;8.23;;;2.45;;
45354;SDS011;31091;48.758;9.150;2023-02-01T15:09:57;8.50;;;3.08;;
45354;SDS011;31091;48.758;9.150;2023-02-01T15:12:44;11.80;;;1.90;;
45354;SDS011;31091;48.758;9.150;2023-02-01T15:15:33;10.05;;;3.35;;
45354;SDS011;31091;48.758;9.150;2023-02-01T15:18:21;9.77;;;3.03;;
45354;SDS011;31091;48.758;9.150;2023-02-01T15:21:14;11.38;;;3.15;;
45354;SDS011;31091;48.758;9.150;2023-02-01T15:24:09;12.77;;;3.17;;
45354;SDS011;31091;48.758;9.150;2023-02-01T15:26:55;11.20;;;2.75;;
45354;SDS011;31091;48.758;9.150;2023-02-01T15:29:41;10.40;;;2.85;;
45354;SDS011;31091;48.758;9.150;2023-02-01T15:41:10;6.50;;;2.67;;
45354;SDS011;31091;48.758;9.150;2023-02-01T15:46:45;16.20;;;2.80;;
45354;SDS011;31091;48.758;9.150;2023-02-01T15:49:32;8.93;;;2.50;;
45354;SDS011;31091;48.758;9.150;2023-02-01T15:52:23;8.82;;;2.40;;
45354;SDS011;31091;48.758;9.150;2023-02-01T15:55:20;6.88;;;3.00;;
45354;SDS011;31091;48.758;9.150;2023-02-01T15:58:07;10.25;;;2.78;;
45354;SDS011;31091;48.758;9.150;2023-02-01T16:00:54;7.00;;;2.50;;
45354;SDS011;31091;48.758;9.150;2023-02-01T16:03:41;9.63;;;2.92;;
45354;SDS011;31091;48.758;9.150;2023-02-01T16:06:29;9.98;;;2.67;;
45354;SDS011;31091;48.758;9.150;2023-02-01T16:09:15;7.53;;;2.13;;
45354;SDS011;31091;48.758;9.150;2023-02-01T16:12:01;12.07;;;2.65;;
45354;SDS011;31091;48.758;9.150;2023-02-01T16:14:46;6.03;;;2.10;;
45354;SDS011;31091;48.758;9.150;2023-02-01T16:17:32;8.57;;;2.25;;
45354;SDS011;31091;48.758;9.150;2023-02-01T16:20:17;8.75;;;2.88;;
45354;SDS011;31091;48.758;9.150;2023-02-01T16:23:03;6.85;;;2.50;;
45354;SDS011;31091;48.758;9.150;2023-02-01T16:25:48;9.52;;;2.95;;
45354;SDS011;31091;48.758;9.150;2023-02-01T16:28:33;8.52;;;2.60;;
45354;SDS011;31091;48.758;9.150;2023-02-01T16:31:20;5.68;;;2.00;;
45354;SDS011;31091;48.758;9.150;2023-02-01T16:34:13;9.38;;;2.40;;
45354;SDS011;31091;48.758;9.150;2023-02-01T16:36:59;9.50;;;2.45;;
45354;SDS011;31091;48.758;9.150;2023-02-01T16:39:45;12.15;;;3.20;;
45354;SDS011;31091;48.758;9.150;2023-02-01T16:42:30;7.18;;;2.58;;
45354;SDS011;31091;48.758;9.150;2023-02-01T16:45:15;11.30;;;2.53;;
45354;SDS011;31091;48.758;9.150;2023-02-01T16:48:01;9.18;;;2.63;;
45354;SDS011;31091;48.758;9.150;2023-02-01T16:50:50;8.55;;;2.35;;
45354;SDS011;31091;48.758;9.150;2023-02-01T16:53:35;10.73;;;3.10;;
45354;SDS011;31091;48.758;9.150;2023-02-01T16:56:22;8.35;;;2.30;;
45354;SDS011;31091;48.758;9.150;2023-02-01T16:59:08;8.20;;;2.17;;
45354;SDS011;31091;48.758;9.150;2023-02-01T17:01:53;8.20;;;2.45;;
45354;SDS011;31091;48.758;9.150;2023-02-01T17:04:38;12.68;;;2.20;;
45354;SDS011;31091;48.758;9.150;2023-02-01T17:07:24;10.27;;;2.42;;
45354;SDS011;31091;48.758;9.150;2023-02-01T17:10:21;10.15;;;4.13;;
45354;SDS011;31091;48.758;9.150;2023-02-01T17:13:10;9.38;;;2.65;;
45354;SDS011;31091;48.758;9.150;2023-02-01T17:18:46;7.10;;;2.40;;
45354;SDS011;31091;48.758;9.150;2023-02-01T17:24:50;10.73;;;2.42;;
45354;SDS011;31091;48.758;9.150;2023-02-01T17:27:35;13.25;;;3.17;;
45354;SDS011;31091;48.758;9.150;2023-02-01T17:30:22;13.00;;;4.80;;
45354;SDS011;31091;48.758;9.150;2023-02-01T17:33:30;11.90;;;3.28;;
45354;SDS011;31091;48.758;9.150;2023-02-01T17:36:14;10.32;;;2.70;;
45354;SDS011;31091;48.758;9.150;2023-02-01T17:39:00;11.95;;;2.67;;
45354;SDS011;31091;48.758;9.150;2023-02-01T17:41:45;17.10;;;2.70;;
45354;SDS011;31091;48.758;9.150;2023-02-01T17:44:31;7.53;;;2.58;;
45354;SDS011;31091;48.758;9.150;2023-02-01T17:47:16;9.65;;;2.83;;
45354;SDS011;31091;48.758;9.150;2023-02-01T17:50:02;9.80;;;3.45;;
45354;SDS011;31091;48.758;9.150;2023-02-01T17:52:47;12.55;;;3.50;;
45354;SDS011;31091;48.758;9.150;2023-02-01T17:55:33;17.33;;;3.13;;
45354;SDS011;31091;48.758;9.150;2023-02-01T17:58:18;15.88;;;5.93;;
45354;SDS011;31091;48.758;9.150;2023-02-01T18:01:03;9.85;;;2.80;;
45354;SDS011;31091;48.758;9.150;2023-02-01T18:03:49;9.20;;;2.92;;
45354;SDS011;31091;48.758;9.150;2023-02-01T18:06:35;8.50;;;2.67;;
45354;SDS011;31091;48.758;9.150;2023-02-01T18:09:20;9.57;;;2.88;;
45354;SDS011;31091;48.758;9.150;2023-02-01T18:12:04;9.73;;;3.13;;
45354;SDS011;31091;48.758;9.150;2023-02-01T18:14:50;10.50;;;2.35;;
45354;SDS011;31091;48.758;9.150;2023-02-01T18:17:35;11.82;;;2.83;;
45354;SDS011;31091;48.758;9.150;2023-02-01T18:20:22;8.65;;;2.58;;
45354;SDS011;31091;48.758;9.150;2023-02-01T18:23:17;11.48;;;2.80;;
45354;SDS011;31091;48.758;9.150;2023-02-01T18:26:03;9.23;;;3.38;;
45354;SDS011;31091;48.758;9.150;2023-02-01T18:28:50;11.38;;;2.97;;
45354;SDS011;31091;48.758;9.150;2023-02-01T18:31:36;11.23;;;3.95;;
45354;SDS011;31091;48.758;9.150;2023-02-01T18:34:24;8.93;;;3.42;;
45354;SDS011;31091;48.758;9.150;2023-02-01T18:37:11;12.77;;;4.20;;
45354;SDS011;31091;48.758;9.150;2023-02-01T18:39:57;10.43;;;2.33;;
45354;SDS011;31091;48.758;9.150;2023-02-01T18:42:22;14.53;;;2.50;;
45354;SDS011;31091;48.758;9.150;2023-02-01T18:44:47;11.10;;;3.22;;
45354;SDS011;31091;48.758;9.150;2023-02-01T18:47:12;8.13;;;2.50;;
45354;SDS011;31091;48.758;9.150;2023-02-01T18:49:37;7.50;;;2.63;;
45354;SDS011;31091;48.758;9.150;2023-02-01T18:52:03;8.60;;;2.63;;
45354;SDS011;31091;48.758;9.150;2023-02-01T18:54:29;9.55;;;2.95;;
45354;SDS011;31091;48.758;9.150;2023-02-01T18:56:55;6.53;;;2.03;;
45354;SDS011;31091;48.758;9.150;2023-02-01T18:59:20;10.33;;;2.63;;
45354;SDS011;31091;48.758;9.150;2023-02-01T19:01:45;18.73;;;2.67;;
45354;SDS011;31091;48.758;9.150;2023-02-01T19:04:11;12.70;;;3.27;;
45354;SDS011;31091;48.758;9.150;2023-02-01T19:06:37;8.50;;;2.88;;
45354;SDS011;31091;48.758;9.150;2023-02-01T19:09:03;6.13;;;2.00;;
45354;SDS011;31091;48.758;9.150;2023-02-01T19:11:28;5.32;;;2.05;;
45354;SDS011;31091;48.758;9.150;2023-02-01T19:13:53;14.40;;;2.88;;
45354;SDS011;31091;48.758;9.150;2023-02-01T19:16:19;10.25;;;2.70;;
45354;SDS011;31091;48.758;9.150;2023-02-01T19:18:48;12.32;;;4.55;;
45354;SDS011;31091;48.758;9.150;2023-02-01T19:21:14;7.60;;;3.55;;
45354;SDS011;31091;48.758;9.150;2023-02-01T19:23:40;12.25;;;3.15;;